Airport ID:KJWN
Update Time (UTC):28/02/2020 22:21
Wind Speed (Knots):10
Wind Direction (Magnetic):240
Temperature (°C):9
Dew Point (°C):-3
Humidity (%):43
Altimeter (inHg):30.08
Density Altitude (Feet):
Visibility (Miles):10+
Clouds (Hundreds of feet):BKN055 OVC065
Present Weather:
METAR:METAR KJWN 282220Z AUTO 25009KT 10SM BKN055 OVC065 09/M03 A3008 RMK A01

The data displayed is for advisory purposes only and is not to be used for flight planning or operations.

This page is not automatically refreshed. Reload the page to see current data.